DLH125 LFMT-LEGE
Flight info
| Callsign | DLH125 |
|---|---|
| Flight time | 0h 25m |
| Altitude | 21000 |
| Route | KELAM J27 PPG A27 KANIG KANI1D |
| Aircraft | A320/M-V/N |
Departure
| Time | 2026-05-05 11:33 |
|---|---|
| Airport | Montpellier-Méditerranée Airport (LFMT) |
Arrival
| Time | 2026-05-05 11:58 |
|---|---|
| Airport | Girona-Costa Brava Airport (LEGE) |
| Time | Latitude | Longitude | Altitude | Speed | Heading |
|---|---|---|---|---|---|
| 2026-05-05 11:16 | 43.57976 | 3.95919 | 15 ft | 0 kts | 188° |
| 2026-05-05 11:19 | 43.57977 | 3.95919 | 15 ft | 0 kts | 188° |
| 2026-05-05 11:25 | 43.57979 | 3.95919 | 15 ft | 2 kts | 188° |
| 2026-05-05 11:25 | 43.58004 | 3.95925 | 15 ft | 4 kts | 191° |
| 2026-05-05 11:25 | 43.58029 | 3.95936 | 15 ft | 4 kts | 214° |
| 2026-05-05 11:26 | 43.58045 | 3.95960 | 15 ft | 4 kts | 265° |
| 2026-05-05 11:26 | 43.58045 | 3.95971 | 15 ft | 3 kts | 279° |
| 2026-05-05 11:28 | 43.58047 | 3.95961 | 15 ft | 5 kts | 279° |
| 2026-05-05 11:29 | 43.58064 | 3.95888 | 15 ft | 8 kts | 303° |
| 2026-05-05 11:29 | 43.58096 | 3.95827 | 15 ft | 7 kts | 306° |
| 2026-05-05 11:29 | 43.58124 | 3.95775 | 16 ft | 6 kts | 311° |
| 2026-05-05 11:29 | 43.58159 | 3.95750 | 15 ft | 5 kts | 348° |
| 2026-05-05 11:30 | 43.58188 | 3.95760 | 15 ft | 4 kts | 30° |
| 2026-05-05 11:30 | 43.58203 | 3.95786 | 15 ft | 5 kts | 63° |
| 2026-05-05 11:30 | 43.58231 | 3.95873 | 14 ft | 15 kts | 65° |
| 2026-05-05 11:30 | 43.58258 | 3.95949 | 13 ft | 1 kts | 64° |
| 2026-05-05 11:31 | 43.58263 | 3.95965 | 13 ft | 2 kts | 64° |
| 2026-05-05 11:31 | 43.58270 | 3.95984 | 12 ft | 0 kts | 64° |
| 2026-05-05 11:31 | 43.58271 | 3.95986 | 12 ft | 1 kts | 64° |
| 2026-05-05 11:32 | 43.58295 | 3.96057 | 12 ft | 17 kts | 65° |
| 2026-05-05 11:32 | 43.58268 | 3.96246 | 16 ft | 35 kts | 120° |
| 2026-05-05 11:32 | 43.57981 | 3.96825 | 14 ft | 108 kts | 124° |
| 2026-05-05 11:32 | 43.57413 | 3.97854 | 96 ft | 153 kts | 133° |
| 2026-05-05 11:33 | 43.56740 | 3.98989 | 765 ft | 154 kts | 134° |
| 2026-05-05 11:33 | 43.56016 | 4.00127 | 1384 ft | 160 kts | 136° |
| 2026-05-05 11:33 | 43.55274 | 4.01299 | 2076 ft | 164 kts | 132° |
| 2026-05-05 11:33 | 43.54556 | 4.02604 | 2552 ft | 181 kts | 125° |
| 2026-05-05 11:34 | 43.53672 | 4.03907 | 2835 ft | 199 kts | 156° |
| 2026-05-05 11:34 | 43.52265 | 4.04082 | 3109 ft | 218 kts | 200° |
| 2026-05-05 11:34 | 43.51038 | 4.02755 | 3500 ft | 241 kts | 239° |
| 2026-05-05 11:34 | 43.50559 | 4.00472 | 4156 ft | 255 kts | 264° |
| 2026-05-05 11:35 | 43.50520 | 3.97998 | 5102 ft | 260 kts | 270° |
| 2026-05-05 11:35 | 43.50597 | 3.95495 | 6049 ft | 263 kts | 271° |
| 2026-05-05 11:35 | 43.50669 | 3.92959 | 6946 ft | 267 kts | 270° |
| 2026-05-05 11:35 | 43.50641 | 3.90390 | 7825 ft | 270 kts | 260° |
| 2026-05-05 11:36 | 43.50012 | 3.87960 | 8697 ft | 272 kts | 237° |
| 2026-05-05 11:36 | 43.48703 | 3.86079 | 9596 ft | 276 kts | 215° |
| 2026-05-05 11:36 | 43.47082 | 3.84609 | 10301 ft | 286 kts | 213° |
| 2026-05-05 11:36 | 43.45342 | 3.83060 | 10609 ft | 310 kts | 213° |
| 2026-05-05 11:37 | 43.43457 | 3.81394 | 10909 ft | 333 kts | 213° |
| 2026-05-05 11:37 | 43.41468 | 3.79639 | 11577 ft | 344 kts | 213° |
| 2026-05-05 11:37 | 43.39468 | 3.77876 | 12425 ft | 348 kts | 213° |
| 2026-05-05 11:37 | 43.37416 | 3.76095 | 13381 ft | 350 kts | 212° |
| 2026-05-05 11:38 | 43.35349 | 3.74308 | 14203 ft | 352 kts | 212° |
| 2026-05-05 11:38 | 43.33273 | 3.72516 | 14959 ft | 354 kts | 212° |
| 2026-05-05 11:38 | 43.31182 | 3.70717 | 15647 ft | 356 kts | 212° |
| 2026-05-05 11:38 | 43.29074 | 3.68908 | 16304 ft | 358 kts | 212° |
| 2026-05-05 11:39 | 43.26952 | 3.67091 | 16953 ft | 361 kts | 212° |
| 2026-05-05 11:39 | 43.24813 | 3.65264 | 17583 ft | 363 kts | 212° |
| 2026-05-05 11:39 | 43.22658 | 3.63428 | 18195 ft | 366 kts | 212° |
| 2026-05-05 11:39 | 43.20488 | 3.61586 | 18745 ft | 368 kts | 212° |
| 2026-05-05 11:40 | 43.18303 | 3.59745 | 19321 ft | 369 kts | 212° |
| 2026-05-05 11:40 | 43.16107 | 3.57915 | 19889 ft | 369 kts | 213° |
| 2026-05-05 11:40 | 43.13898 | 3.56112 | 20513 ft | 369 kts | 212° |
| 2026-05-05 11:40 | 43.11687 | 3.54329 | 20845 ft | 369 kts | 212° |
| 2026-05-05 11:41 | 43.09477 | 3.52560 | 20926 ft | 367 kts | 212° |
| 2026-05-05 11:41 | 43.07273 | 3.50799 | 20932 ft | 366 kts | 212° |
| 2026-05-05 11:41 | 43.05037 | 3.48973 | 20938 ft | 381 kts | 213° |
| 2026-05-05 11:41 | 43.02749 | 3.47025 | 20935 ft | 392 kts | 214° |
| 2026-05-05 11:42 | 43.01226 | 3.45690 | 20935 ft | 394 kts | 214° |
| 2026-05-05 11:42 | 42.98927 | 3.43633 | 20938 ft | 396 kts | 215° |
| 2026-05-05 11:42 | 42.96634 | 3.41553 | 20919 ft | 396 kts | 215° |
| 2026-05-05 11:42 | 42.94342 | 3.39468 | 20938 ft | 396 kts | 216° |
| 2026-05-05 11:43 | 42.92047 | 3.37388 | 20941 ft | 396 kts | 215° |
| 2026-05-05 11:43 | 42.89754 | 3.35324 | 20933 ft | 392 kts | 215° |
| 2026-05-05 11:43 | 42.87516 | 3.33323 | 20397 ft | 382 kts | 215° |
| 2026-05-05 11:43 | 42.85261 | 3.31315 | 19262 ft | 391 kts | 215° |
| 2026-05-05 11:44 | 42.83008 | 3.29305 | 18719 ft | 383 kts | 214° |
| 2026-05-05 11:44 | 42.80792 | 3.27330 | 18105 ft | 378 kts | 214° |
| 2026-05-05 11:44 | 42.78601 | 3.25380 | 17489 ft | 373 kts | 214° |
| 2026-05-05 11:44 | 42.76448 | 3.23465 | 16931 ft | 366 kts | 214° |
| 2026-05-05 11:45 | 42.74333 | 3.21586 | 16403 ft | 361 kts | 214° |
| 2026-05-05 11:45 | 42.72249 | 3.19732 | 15887 ft | 355 kts | 214° |
| 2026-05-05 11:45 | 42.70217 | 3.17924 | 15403 ft | 351 kts | 214° |
| 2026-05-05 11:45 | 42.68174 | 3.16109 | 14915 ft | 349 kts | 214° |
| 2026-05-05 11:46 | 42.66145 | 3.14309 | 14437 ft | 347 kts | 214° |
| 2026-05-05 11:46 | 42.64122 | 3.12513 | 13941 ft | 346 kts | 213° |
| 2026-05-05 11:46 | 42.62113 | 3.10733 | 13410 ft | 344 kts | 213° |
| 2026-05-05 11:46 | 42.60115 | 3.08964 | 12871 ft | 342 kts | 214° |
| 2026-05-05 11:47 | 42.58126 | 3.07205 | 12350 ft | 340 kts | 214° |
| 2026-05-05 11:47 | 42.56143 | 3.05456 | 11782 ft | 338 kts | 214° |
| 2026-05-05 11:47 | 42.54180 | 3.03727 | 11235 ft | 336 kts | 214° |
| 2026-05-05 11:47 | 42.52256 | 3.02033 | 11032 ft | 321 kts | 214° |
| 2026-05-05 11:48 | 42.48673 | 2.98930 | 10784 ft | 293 kts | 210° |
| 2026-05-05 11:48 | 42.46831 | 2.97860 | 10651 ft | 284 kts | 200° |
| 2026-05-05 11:48 | 42.44959 | 2.97138 | 10524 ft | 276 kts | 199° |
| 2026-05-05 11:49 | 42.43133 | 2.96436 | 10383 ft | 271 kts | 199° |
| 2026-05-05 11:49 | 42.41325 | 2.95733 | 10322 ft | 270 kts | 199° |
| 2026-05-05 11:49 | 42.39523 | 2.95031 | 10252 ft | 269 kts | 199° |
| 2026-05-05 11:49 | 42.37722 | 2.94328 | 10140 ft | 269 kts | 199° |
| 2026-05-05 11:50 | 42.35923 | 2.93631 | 10012 ft | 268 kts | 199° |
| 2026-05-05 11:50 | 42.34150 | 2.92947 | 9896 ft | 260 kts | 199° |
| 2026-05-05 11:50 | 42.32404 | 2.92271 | 9470 ft | 261 kts | 199° |
| 2026-05-05 11:50 | 42.30668 | 2.91598 | 9128 ft | 258 kts | 199° |
| 2026-05-05 11:51 | 42.28943 | 2.90934 | 8771 ft | 256 kts | 199° |
| 2026-05-05 11:51 | 42.27231 | 2.90274 | 8408 ft | 255 kts | 199° |
| 2026-05-05 11:51 | 42.25528 | 2.89617 | 8040 ft | 254 kts | 199° |
| 2026-05-05 11:51 | 42.23855 | 2.88972 | 7674 ft | 253 kts | 199° |
| 2026-05-05 11:52 | 42.22167 | 2.88322 | 7305 ft | 251 kts | 199° |
| 2026-05-05 11:52 | 42.20486 | 2.87675 | 6925 ft | 251 kts | 199° |
| 2026-05-05 11:52 | 42.18809 | 2.87031 | 6551 ft | 251 kts | 198° |
| 2026-05-05 11:52 | 42.17136 | 2.86389 | 6170 ft | 250 kts | 198° |
| 2026-05-05 11:53 | 42.15468 | 2.85750 | 5783 ft | 248 kts | 198° |
| 2026-05-05 11:53 | 42.13811 | 2.85114 | 5415 ft | 247 kts | 198° |
| 2026-05-05 11:53 | 42.12164 | 2.84483 | 5050 ft | 245 kts | 198° |
| 2026-05-05 11:53 | 42.10537 | 2.83845 | 4687 ft | 243 kts | 198° |
| 2026-05-05 11:54 | 42.08935 | 2.83211 | 4316 ft | 235 kts | 198° |
| 2026-05-05 11:54 | 42.07399 | 2.82619 | 3858 ft | 229 kts | 196° |
| 2026-05-05 11:54 | 42.05864 | 2.82036 | 3452 ft | 229 kts | 195° |
| 2026-05-05 11:54 | 42.04333 | 2.81454 | 3118 ft | 228 kts | 194° |
| 2026-05-05 11:55 | 42.02810 | 2.80876 | 2827 ft | 228 kts | 194° |
| 2026-05-05 11:55 | 42.01286 | 2.80297 | 2526 ft | 227 kts | 193° |
| 2026-05-05 11:55 | 41.99770 | 2.79721 | 2223 ft | 225 kts | 192° |
| 2026-05-05 11:55 | 41.98306 | 2.79165 | 1927 ft | 216 kts | 193° |
| 2026-05-05 11:56 | 41.96919 | 2.78636 | 1667 ft | 197 kts | 191° |
| 2026-05-05 11:56 | 41.95673 | 2.78162 | 1401 ft | 176 kts | 192° |
| 2026-05-05 11:56 | 41.94561 | 2.77741 | 1163 ft | 157 kts | 192° |
| 2026-05-05 11:56 | 41.93576 | 2.77368 | 963 ft | 140 kts | 191° |
| 2026-05-05 11:57 | 41.92673 | 2.77020 | 790 ft | 131 kts | 190° |
| 2026-05-05 11:57 | 41.91783 | 2.76699 | 591 ft | 133 kts | 192° |
| 2026-05-05 11:57 | 41.90905 | 2.76359 | 475 ft | 124 kts | 191° |
| 2026-05-05 11:57 | 41.90177 | 2.76095 | 433 ft | 87 kts | 195° |
| 2026-05-05 11:58 | 41.89715 | 2.75914 | 420 ft | 46 kts | 196° |
| 2026-05-05 11:58 | 41.89551 | 2.75862 | 415 ft | 14 kts | 173° |
| 2026-05-05 11:58 | 41.89533 | 2.75951 | 408 ft | 4 kts | 43° |
| 2026-05-05 11:58 | 41.89547 | 2.75988 | 411 ft | 6 kts | 63° |
| 2026-05-05 11:59 | 41.89576 | 2.76065 | 412 ft | 11 kts | 61° |
| 2026-05-05 11:59 | 41.89628 | 2.76110 | 414 ft | 8 kts | 18° |
| 2026-05-05 11:59 | 41.89680 | 2.76130 | 417 ft | 7 kts | 15° |
| 2026-05-05 11:59 | 41.89777 | 2.76164 | 413 ft | 16 kts | 14° |
| 2026-05-05 12:00 | 41.89867 | 2.76196 | 418 ft | 12 kts | 15° |
| 2026-05-05 12:00 | 41.89907 | 2.76260 | 419 ft | 10 kts | 95° |
| 2026-05-05 12:00 | 41.89884 | 2.76361 | 420 ft | 12 kts | 120° |